Time;durP1;ratioP1;P1;durP2;ratioP2;P2;SDS_P1;SDS_P2;PMS_P1;PMS_P2;Temp;Humidity;BMP_temperature;BMP_pressure;BME280_temperature;BME280_humidity;BME280_pressure;Samples;Min_cycle;Max_cycle;Signal;HPM_P1;HPM_P2
2021/07/13 00:00:40;;;;;;;5.03;4.20;;;;;;;;;;5010288;28;20567;-60
2021/07/13 00:03:06;;;;;;;7.90;3.90;;;;;;;;;;5000729;28;20187;-59
2021/07/13 00:05:32;;;;;;;5.13;4.18;;;;;;;;;;5008951;28;20196;-59
2021/07/13 00:07:57;;;;;;;4.93;4.43;;;;;;;;;;5006817;28;20206;-59
2021/07/13 00:10:24;;;;;;;15.93;4.25;;;;;;;;;;5007581;28;20738;-60
2021/07/13 00:12:50;;;;;;;6.95;4.97;;;;;;;;;;5006719;28;20590;-58
2021/07/13 00:15:24;;;;;;;4.65;4.35;;;;;;;;;;4991774;28;20211;-60
2021/07/13 00:17:51;;;;;;;6.32;4.68;;;;;;;;;;5007981;28;20221;-60
2021/07/13 00:20:16;;;;;;;9.23;4.70;;;;;;;;;;5008294;28;20253;-60
2021/07/13 00:22:42;;;;;;;8.02;4.65;;;;;;;;;;5006432;28;20258;-59
2021/07/13 00:25:08;;;;;;;6.32;5.70;;;;;;;;;;4997537;28;20192;-59
2021/07/13 00:27:33;;;;;;;5.70;5.05;;;;;;;;;;4993791;28;20714;-60
2021/07/13 00:29:58;;;;;;;5.20;4.70;;;;;;;;;;4999793;28;20290;-59
2021/07/13 00:32:23;;;;;;;7.78;4.88;;;;;;;;;;5008935;28;20191;-59
2021/07/13 00:34:49;;;;;;;7.93;5.40;;;;;;;;;;5004581;28;20353;-59
2021/07/13 00:37:14;;;;;;;10.90;4.87;;;;;;;;;;5006491;28;20187;-58
2021/07/13 00:39:39;;;;;;;5.13;4.72;;;;;;;;;;5006001;28;20469;-60
2021/07/13 00:42:10;;;;;;;6.77;5.00;;;;;;;;;;4985468;28;20197;-58
2021/07/13 00:44:35;;;;;;;8.18;5.45;;;;;;;;;;4998544;28;20422;-60
2021/07/13 00:47:01;;;;;;;5.43;4.80;;;;;;;;;;5009045;28;20175;-59
2021/07/13 00:49:26;;;;;;;7.30;5.35;;;;;;;;;;5007838;28;20486;-58
2021/07/13 00:51:51;;;;;;;6.15;4.43;;;;;;;;;;5006523;28;20175;-60
2021/07/13 00:54:17;;;;;;;8.87;5.13;;;;;;;;;;5007218;28;20258;-58
2021/07/13 00:56:43;;;;;;;5.40;4.80;;;;;;;;;;5002931;28;20544;-59
2021/07/13 00:59:09;;;;;;;5.55;4.53;;;;;;;;;;5003867;28;20231;-58
2021/07/13 01:01:34;;;;;;;6.00;4.63;;;;;;;;;;5007104;28;20270;-58
2021/07/13 01:04:01;;;;;;;8.07;5.82;;;;;;;;;;5007099;28;20188;-59
2021/07/13 01:06:33;;;;;;;9.02;5.75;;;;;;;;;;4990927;28;20266;-58
2021/07/13 01:09:03;;;;;;;5.20;4.80;;;;;;;;;;5004569;28;20186;-58
2021/07/13 01:11:47;;;;;;;12.15;5.10;;;;;;;;;;5002143;28;20192;-59
2021/07/13 01:14:28;;;;;;;7.35;4.78;;;;;;;;;;5054128;23;20222;-75
2021/07/13 01:16:57;;;;;;;6.28;5.68;;;;;;;;;;5046556;28;20208;-75
2021/07/13 01:19:33;;;;;;;6.28;5.68;;;;;;;;;;5040932;28;20182;-75
2021/07/13 01:21:59;;;;;;;16.60;5.03;;;;;;;;;;5019950;28;20646;-74
2021/07/13 01:24:43;;;;;;;16.88;5.40;;;;;;;;;;5024970;28;20699;-76
2021/07/13 01:27:27;;;;;;;11.55;4.93;;;;;;;;;;5020954;28;20676;-76
2021/07/13 01:29:54;;;;;;;7.50;4.95;;;;;;;;;;5025392;28;20202;-75
2021/07/13 01:32:21;;;;;;;10.05;5.20;;;;;;;;;;5026173;28;20246;-76
2021/07/13 01:34:52;;;;;;;7.85;5.30;;;;;;;;;;5018842;28;20206;-76
2021/07/13 01:37:19;;;;;;;6.22;5.70;;;;;;;;;;5012976;28;20182;-75
2021/07/13 01:39:45;;;;;;;9.60;5.47;;;;;;;;;;5011149;28;20183;-76
2021/07/13 01:42:11;;;;;;;6.50;5.90;;;;;;;;;;5016405;28;20220;-75
2021/07/13 01:44:37;;;;;;;5.80;5.28;;;;;;;;;;5023533;28;20183;-74
2021/07/13 01:47:03;;;;;;;5.80;5.25;;;;;;;;;;5026693;28;20194;-75
2021/07/13 01:49:29;;;;;;;11.43;5.80;;;;;;;;;;5025615;28;20186;-76
2021/07/13 01:51:55;;;;;;;14.02;5.88;;;;;;;;;;5019117;28;20183;-75
2021/07/13 01:54:21;;;;;;;7.30;4.88;;;;;;;;;;5028571;28;20182;-76
2021/07/13 01:56:50;;;;;;;5.65;5.10;;;;;;;;;;5027741;28;20654;-77
2021/07/13 01:59:17;;;;;;;6.05;4.60;;;;;;;;;;5023764;28;20180;-74
2021/07/13 02:01:43;;;;;;;6.88;4.72;;;;;;;;;;5019260;28;20207;-76
2021/07/13 02:04:09;;;;;;;5.47;4.70;;;;;;;;;;5024143;28;20277;-75
2021/07/13 02:06:35;;;;;;;4.88;4.40;;;;;;;;;;5022917;28;20202;-75
2021/07/13 02:09:01;;;;;;;5.18;4.68;;;;;;;;;;5027323;28;20183;-76
2021/07/13 02:11:27;;;;;;;7.70;5.35;;;;;;;;;;5016512;28;20210;-75
2021/07/13 02:13:52;;;;;;;8.60;4.80;;;;;;;;;;5023218;28;20191;-75
2021/07/13 02:16:19;;;;;;;11.30;4.88;;;;;;;;;;5021353;28;20210;-75
2021/07/13 02:18:44;;;;;;;10.18;4.88;;;;;;;;;;5024315;28;20218;-75
2021/07/13 02:21:09;;;;;;;13.82;4.35;;;;;;;;;;5027060;28;20227;-75
2021/07/13 02:23:35;;;;;;;11.70;4.38;;;;;;;;;;5028706;28;20512;-74
2021/07/13 02:26:02;;;;;;;6.68;5.40;;;;;;;;;;5021578;28;20531;-76
2021/07/13 02:28:32;;;;;;;6.28;4.95;;;;;;;;;;5029938;28;20201;-75
2021/07/13 02:31:11;;;;;;;8.27;5.78;;;;;;;;;;5027152;28;20214;-75
2021/07/13 02:33:40;;;;;;;8.60;5.80;;;;;;;;;;5025990;28;20319;-75
2021/07/13 02:36:08;;;;;;;9.57;4.70;;;;;;;;;;5025718;28;20203;-76
2021/07/13 02:38:33;;;;;;;15.60;5.13;;;;;;;;;;5028056;28;20182;-75
2021/07/13 02:41:01;;;;;;;13.00;4.57;;;;;;;;;;5026619;28;20329;-76
2021/07/13 02:43:26;;;;;;;6.18;5.13;;;;;;;;;;5022369;28;20193;-76
2021/07/13 02:45:52;;;;;;;8.32;4.63;;;;;;;;;;5020723;28;20195;-76
2021/07/13 02:48:18;;;;;;;7.60;4.40;;;;;;;;;;5029487;28;20270;-76
2021/07/13 02:50:44;;;;;;;6.50;4.47;;;;;;;;;;5025602;28;20667;-76
2021/07/13 02:53:10;;;;;;;9.98;5.13;;;;;;;;;;5021739;28;20216;-76
2021/07/13 02:55:36;;;;;;;14.27;4.28;;;;;;;;;;5024558;28;20620;-76
2021/07/13 02:58:02;;;;;;;7.78;4.28;;;;;;;;;;5029618;28;20261;-75
2021/07/13 03:00:28;;;;;;;7.72;4.30;;;;;;;;;;5029688;28;20206;-75
2021/07/13 03:02:54;;;;;;;5.65;4.40;;;;;;;;;;5013514;28;20245;-76
2021/07/13 03:05:20;;;;;;;11.98;4.30;;;;;;;;;;5030295;28;20266;-75
2021/07/13 03:07:49;;;;;;;6.32;3.90;;;;;;;;;;5024460;28;20265;-75
2021/07/13 03:10:15;;;;;;;8.73;4.50;;;;;;;;;;5040692;22;20191;-63
2021/07/13 03:12:42;;;;;;;9.35;5.05;;;;;;;;;;5022036;28;20223;-63
2021/07/13 03:15:08;;;;;;;13.35;4.82;;;;;;;;;;5002884;28;20203;-62
2021/07/13 03:17:33;;;;;;;7.22;5.20;;;;;;;;;;4994314;28;20214;-62
2021/07/13 03:19:58;;;;;;;10.32;5.45;;;;;;;;;;5005651;28;20183;-60
2021/07/13 03:22:24;;;;;;;15.10;5.32;;;;;;;;;;4989418;28;20655;-63
2021/07/13 03:24:49;;;;;;;7.25;5.45;;;;;;;;;;5001441;28;20210;-63
2021/07/13 03:27:15;;;;;;;11.73;5.20;;;;;;;;;;5006907;28;20427;-61
2021/07/13 03:29:41;;;;;;;11.02;4.72;;;;;;;;;;5004592;28;20183;-61
2021/07/13 03:32:07;;;;;;;10.68;5.00;;;;;;;;;;4996904;28;20188;-62
2021/07/13 03:34:32;;;;;;;6.07;5.47;;;;;;;;;;5002568;28;20580;-62
2021/07/13 03:36:57;;;;;;;7.07;5.68;;;;;;;;;;5008320;28;20187;-62
2021/07/13 03:39:25;;;;;;;11.65;5.38;;;;;;;;;;5007455;28;20184;-62
2021/07/13 03:41:50;;;;;;;8.73;5.80;;;;;;;;;;4982299;28;20198;-62
2021/07/13 03:44:15;;;;;;;9.93;6.20;;;;;;;;;;5006982;28;20580;-64
2021/07/13 03:46:41;;;;;;;7.80;5.70;;;;;;;;;;5005900;28;20203;-61
2021/07/13 03:49:07;;;;;;;13.93;6.57;;;;;;;;;;5005180;28;20183;-61
2021/07/13 03:51:37;;;;;;;7.18;6.30;;;;;;;;;;5004959;28;20191;-61
2021/07/13 03:54:03;;;;;;;9.02;6.68;;;;;;;;;;4993121;28;20811;-62
2021/07/13 03:56:29;;;;;;;16.17;6.97;;;;;;;;;;5009212;28;20297;-63
2021/07/13 03:58:55;;;;;;;11.68;5.75;;;;;;;;;;4993843;28;20188;-64
2021/07/13 04:01:20;;;;;;;9.38;6.53;;;;;;;;;;5004158;28;20188;-63
2021/07/13 04:03:45;;;;;;;8.15;7.00;;;;;;;;;;5006129;28;20722;-61
2021/07/13 04:06:10;;;;;;;12.13;6.50;;;;;;;;;;5006159;28;20179;-63
2021/07/13 04:08:36;;;;;;;14.23;6.70;;;;;;;;;;5003737;28;20219;-61
2021/07/13 04:11:01;;;;;;;9.93;6.55;;;;;;;;;;5007875;28;20229;-63
2021/07/13 04:13:27;;;;;;;16.67;7.22;;;;;;;;;;4997326;28;20270;-63
2021/07/13 04:15:52;;;;;;;12.65;7.10;;;;;;;;;;5005675;28;20195;-62
2021/07/13 04:18:17;;;;;;;16.15;7.45;;;;;;;;;;4996615;28;20176;-62
2021/07/13 04:20:43;;;;;;;10.35;6.40;;;;;;;;;;4995820;28;20187;-62
2021/07/13 04:23:08;;;;;;;12.30;6.10;;;;;;;;;;4982321;28;20563;-60
2021/07/13 04:25:33;;;;;;;12.80;6.55;;;;;;;;;;5006092;28;20215;-64
2021/07/13 04:27:58;;;;;;;18.75;6.40;;;;;;;;;;4997884;28;20188;-61
2021/07/13 04:30:23;;;;;;;9.23;6.50;;;;;;;;;;5007261;28;20191;-63
2021/07/13 04:32:48;;;;;;;7.78;6.35;;;;;;;;;;5001509;28;20180;-62
2021/07/13 04:35:14;;;;;;;12.85;6.40;;;;;;;;;;5000598;28;20715;-60
2021/07/13 04:37:39;;;;;;;11.27;7.28;;;;;;;;;;5003689;28;20187;-61
2021/07/13 04:40:04;;;;;;;11.77;6.82;;;;;;;;;;5003902;28;20215;-61
2021/07/13 04:42:30;;;;;;;9.95;6.78;;;;;;;;;;5001437;28;20191;-62
2021/07/13 04:44:55;;;;;;;10.77;7.13;;;;;;;;;;4992089;28;20203;-63
2021/07/13 04:47:20;;;;;;;9.55;7.53;;;;;;;;;;4990637;28;20211;-62
2021/07/13 04:49:45;;;;;;;10.10;7.57;;;;;;;;;;5006996;28;20188;-62
2021/07/13 04:52:11;;;;;;;10.32;6.82;;;;;;;;;;5001712;28;20688;-60
2021/07/13 04:54:36;;;;;;;9.50;6.95;;;;;;;;;;5005165;28;20215;-62
2021/07/13 04:57:01;;;;;;;13.02;7.40;;;;;;;;;;5004852;28;20175;-60
2021/07/13 04:59:27;;;;;;;8.70;7.65;;;;;;;;;;5005412;28;20186;-62
2021/07/13 05:01:52;;;;;;;8.43;7.35;;;;;;;;;;5007002;28;20548;-62
2021/07/13 05:04:17;;;;;;;7.47;6.75;;;;;;;;;;4998876;28;20225;-61
2021/07/13 05:06:42;;;;;;;8.35;7.53;;;;;;;;;;5001447;28;21717;-64
2021/07/13 05:09:08;;;;;;;8.52;7.47;;;;;;;;;;5001225;28;20566;-62
2021/07/13 05:11:33;;;;;;;9.48;7.32;;;;;;;;;;5001316;28;20215;-63
2021/07/13 05:14:00;;;;;;;8.35;7.43;;;;;;;;;;4993765;28;20242;-63
2021/07/13 05:16:25;;;;;;;8.27;7.50;;;;;;;;;;5008049;28;20291;-63
2021/07/13 05:18:50;;;;;;;8.43;7.45;;;;;;;;;;4992808;28;20275;-60
2021/07/13 05:21:15;;;;;;;8.93;7.53;;;;;;;;;;5003026;28;20348;-62
2021/07/13 05:23:41;;;;;;;11.23;7.55;;;;;;;;;;5003620;28;20262;-63
2021/07/13 05:26:06;;;;;;;13.00;8.27;;;;;;;;;;5007094;28;20221;-63
2021/07/13 05:28:31;;;;;;;13.48;8.52;;;;;;;;;;5005016;28;20183;-61
2021/07/13 05:30:56;;;;;;;9.93;7.78;;;;;;;;;;5005322;28;20194;-61
2021/07/13 05:33:21;;;;;;;10.80;8.15;;;;;;;;;;4983641;28;20231;-62
2021/07/13 05:35:47;;;;;;;7.97;7.18;;;;;;;;;;4998969;28;20215;-63
2021/07/13 05:38:12;;;;;;;8.43;7.28;;;;;;;;;;5000634;28;20184;-62
2021/07/13 05:40:37;;;;;;;10.23;7.75;;;;;;;;;;4986786;28;20690;-64
2021/07/13 05:43:02;;;;;;;11.13;7.35;;;;;;;;;;4995721;28;20183;-61
2021/07/13 05:45:28;;;;;;;10.38;7.18;;;;;;;;;;5003108;28;20176;-63
2021/07/13 05:47:53;;;;;;;9.18;7.50;;;;;;;;;;4991698;28;20562;-65
2021/07/13 05:50:18;;;;;;;10.43;6.95;;;;;;;;;;5006186;28;20764;-61
2021/07/13 05:52:44;;;;;;;8.65;7.70;;;;;;;;;;4984983;28;20237;-64
2021/07/13 05:55:09;;;;;;;8.40;7.30;;;;;;;;;;5000604;28;20215;-63
2021/07/13 05:57:35;;;;;;;7.95;7.10;;;;;;;;;;5008837;28;20610;-62
2021/07/13 06:00:00;;;;;;;9.85;7.00;;;;;;;;;;5009292;28;20188;-62
2021/07/13 06:02:25;;;;;;;7.93;6.65;;;;;;;;;;4991026;28;20795;-61
2021/07/13 06:04:50;;;;;;;7.28;6.28;;;;;;;;;;4984868;28;20212;-60
2021/07/13 06:07:16;;;;;;;7.78;6.95;;;;;;;;;;4996452;28;20182;-63
2021/07/13 06:09:41;;;;;;;8.35;6.85;;;;;;;;;;4999204;28;20266;-63
2021/07/13 06:12:07;;;;;;;8.15;7.10;;;;;;;;;;5004395;28;20659;-64
2021/07/13 06:14:36;;;;;;;7.35;6.63;;;;;;;;;;4992534;28;20261;-63
2021/07/13 06:17:01;;;;;;;7.18;6.47;;;;;;;;;;5007776;28;21849;-63
2021/07/13 06:19:26;;;;;;;10.15;7.32;;;;;;;;;;5006738;28;20184;-64
2021/07/13 06:21:51;;;;;;;10.40;6.77;;;;;;;;;;4998475;28;20216;-59
2021/07/13 06:24:17;;;;;;;7.57;6.87;;;;;;;;;;5004744;28;20426;-61
2021/07/13 06:26:42;;;;;;;8.45;7.45;;;;;;;;;;4999609;28;20431;-59
2021/07/13 06:29:07;;;;;;;7.18;6.50;;;;;;;;;;5006201;28;20211;-59
2021/07/13 06:31:32;;;;;;;6.70;6.10;;;;;;;;;;5006127;28;20768;-61
2021/07/13 06:33:57;;;;;;;10.30;7.28;;;;;;;;;;5002099;28;20211;-60
2021/07/13 06:36:23;;;;;;;8.77;7.43;;;;;;;;;;5003956;28;20211;-60
2021/07/13 06:38:48;;;;;;;10.25;6.78;;;;;;;;;;5002153;28;20743;-59
2021/07/13 06:41:13;;;;;;;7.82;6.97;;;;;;;;;;4997372;28;20704;-58
2021/07/13 06:43:38;;;;;;;8.20;7.40;;;;;;;;;;4994183;28;20211;-59
2021/07/13 06:46:04;;;;;;;10.07;6.93;;;;;;;;;;4994375;28;20564;-59
2021/07/13 06:48:29;;;;;;;9.63;6.95;;;;;;;;;;4998679;28;20274;-61
2021/07/13 06:50:54;;;;;;;8.02;7.28;;;;;;;;;;5005391;28;20219;-59
2021/07/13 06:53:20;;;;;;;8.73;7.20;;;;;;;;;;5000489;28;20246;-60
2021/07/13 06:55:45;;;;;;;11.30;7.32;;;;;;;;;;5006149;28;20277;-60
2021/07/13 06:58:10;;;;;;;9.88;7.38;;;;;;;;;;5007358;28;20378;-60
2021/07/13 07:00:35;;;;;;;9.32;7.38;;;;;;;;;;5003011;28;20671;-60
2021/07/13 07:03:00;;;;;;;8.73;7.22;;;;;;;;;;5003193;28;20191;-58
2021/07/13 07:05:26;;;;;;;9.85;8.27;;;;;;;;;;5004317;28;20183;-60
2021/07/13 07:07:52;;;;;;;9.50;7.47;;;;;;;;;;5006748;28;20183;-59
2021/07/13 07:10:17;;;;;;;8.32;7.53;;;;;;;;;;5004740;28;20187;-58
2021/07/13 07:12:43;;;;;;;9.52;7.70;;;;;;;;;;5006870;28;20194;-58
2021/07/13 07:15:09;;;;;;;7.72;6.93;;;;;;;;;;5005517;28;20627;-57
2021/07/13 07:17:41;;;;;;;8.38;7.07;;;;;;;;;;4999851;28;20179;-59
2021/07/13 07:20:07;;;;;;;7.40;6.63;;;;;;;;;;5004495;28;20568;-60
2021/07/13 07:22:32;;;;;;;9.43;7.22;;;;;;;;;;5002115;28;20188;-61
2021/07/13 07:24:58;;;;;;;8.30;6.75;;;;;;;;;;4995166;28;20294;-62
2021/07/13 07:27:23;;;;;;;7.63;6.75;;;;;;;;;;5000248;28;20434;-62
2021/07/13 07:29:48;;;;;;;8.23;7.23;;;;;;;;;;4993469;28;21067;-63
2021/07/13 07:32:13;;;;;;;8.32;7.00;;;;;;;;;;4999841;28;20418;-61
2021/07/13 07:34:39;;;;;;;8.20;7.10;;;;;;;;;;4994343;28;20212;-63
2021/07/13 07:37:04;;;;;;;8.27;7.47;;;;;;;;;;4992163;28;20431;-61
2021/07/13 07:39:29;;;;;;;7.90;7.10;;;;;;;;;;5002536;28;20496;-63
2021/07/13 07:41:54;;;;;;;13.25;7.30;;;;;;;;;;5002682;28;20431;-61
2021/07/13 07:44:23;;;;;;;7.95;7.10;;;;;;;;;;5003753;28;20684;-64
2021/07/13 07:46:48;;;;;;;8.07;7.28;;;;;;;;;;5007233;28;20179;-64
2021/07/13 07:49:13;;;;;;;8.03;6.60;;;;;;;;;;5002204;28;20605;-62
2021/07/13 07:51:38;;;;;;;8.53;7.73;;;;;;;;;;5000931;28;20519;-62
2021/07/13 07:54:03;;;;;;;8.80;7.90;;;;;;;;;;5002999;28;20452;-60
2021/07/13 07:56:29;;;;;;;8.10;7.40;;;;;;;;;;4995169;28;20232;-62
2021/07/13 07:58:54;;;;;;;7.68;6.93;;;;;;;;;;5002500;28;20233;-59
2021/07/13 08:01:19;;;;;;;9.15;7.25;;;;;;;;;;5001542;28;20175;-63
2021/07/13 08:03:45;;;;;;;7.73;6.93;;;;;;;;;;5003846;28;20718;-63
2021/07/13 08:06:10;;;;;;;8.50;6.65;;;;;;;;;;5020804;23;20415;-55
2021/07/13 08:08:35;;;;;;;7.78;7.03;;;;;;;;;;5043667;28;20186;-59
2021/07/13 08:11:01;;;;;;;7.95;7.25;;;;;;;;;;5042298;28;20174;-56
2021/07/13 08:13:26;;;;;;;8.50;7.60;;;;;;;;;;5028196;28;20182;-57
2021/07/13 08:15:51;;;;;;;10.07;7.77;;;;;;;;;;5034409;28;20201;-57
2021/07/13 08:18:19;;;;;;;8.25;7.60;;;;;;;;;;5020561;28;20265;-56
2021/07/13 08:20:44;;;;;;;5.43;5.03;;;;;;;;;;5007505;28;20639;-58
2021/07/13 08:23:09;;;;;;;9.10;5.50;;;;;;;;;;5016029;28;20197;-58
2021/07/13 08:25:35;;;;;;;6.50;6.00;;;;;;;;;;5003436;28;20497;-57
2021/07/13 08:28:00;;;;;;;6.27;5.67;;;;;;;;;;5016598;28;20498;-58
2021/07/13 08:30:27;;;;;;;6.50;5.90;;;;;;;;;;5013593;28;20659;-57
2021/07/13 08:32:52;;;;;;;6.72;6.22;;;;;;;;;;5014651;28;21069;-58
2021/07/13 08:35:17;;;;;;;6.13;5.63;;;;;;;;;;5008199;28;20285;-59
2021/07/13 08:37:42;;;;;;;6.20;5.70;;;;;;;;;;5017199;28;20203;-59
2021/07/13 08:40:09;;;;;;;5.80;5.40;;;;;;;;;;5023669;28;20635;-57
2021/07/13 08:42:36;;;;;;;5.88;5.15;;;;;;;;;;5015124;28;20681;-58
2021/07/13 08:45:01;;;;;;;6.00;5.50;;;;;;;;;;5018649;28;20217;-59
2021/07/13 08:47:26;;;;;;;10.70;5.75;;;;;;;;;;5021643;28;20206;-57
2021/07/13 08:49:52;;;;;;;6.47;5.47;;;;;;;;;;5018762;28;20217;-59
2021/07/13 08:52:17;;;;;;;5.57;5.17;;;;;;;;;;5021137;28;20314;-59
2021/07/13 08:54:42;;;;;;;6.30;5.73;;;;;;;;;;5022873;28;20814;-58
2021/07/13 08:57:08;;;;;;;6.15;5.75;;;;;;;;;;5023039;28;20208;-57
2021/07/13 08:59:33;;;;;;;5.80;5.30;;;;;;;;;;5022994;28;20178;-58
2021/07/13 09:01:59;;;;;;;4.83;4.53;;;;;;;;;;5024812;28;20178;-58
2021/07/13 09:04:34;;;;;;;4.77;4.47;;;;;;;;;;5024198;28;20668;-57
2021/07/13 09:06:59;;;;;;;5.38;4.40;;;;;;;;;;5024019;28;20472;-57
2021/07/13 09:09:24;;;;;;;4.85;4.55;;;;;;;;;;5017961;28;20638;-58
2021/07/13 09:12:14;;;;;;;4.60;4.20;;;;;;;;;;5026551;28;20274;-58
2021/07/13 09:14:48;;;;;;;5.07;4.18;;;;;;;;;;5014954;28;20577;-57
2021/07/13 09:17:26;;;;;;;4.18;3.88;;;;;;;;;;5010981;28;20202;-60
2021/07/13 09:19:58;;;;;;;4.22;3.83;;;;;;;;;;5022966;28;20598;-59
2021/07/13 09:22:23;;;;;;;4.15;3.60;;;;;;;;;;5023368;28;20206;-56
2021/07/13 09:24:48;;;;;;;3.90;3.67;;;;;;;;;;5016670;28;20268;-56
2021/07/13 09:27:16;;;;;;;4.20;3.87;;;;;;;;;;5023100;28;20709;-58
2021/07/13 09:29:44;;;;;;;4.05;3.65;;;;;;;;;;5022553;28;20187;-56
2021/07/13 09:32:26;;;;;;;4.47;3.60;;;;;;;;;;5027537;28;20177;-56
2021/07/13 09:35:03;;;;;;;3.80;3.50;;;;;;;;;;5027473;28;20170;-58
2021/07/13 09:37:32;;;;;;;3.67;3.40;;;;;;;;;;5019477;28;20238;-57
2021/07/13 09:39:58;;;;;;;5.18;4.00;;;;;;;;;;5028211;28;20257;-57
2021/07/13 09:42:24;;;;;;;4.65;4.32;;;;;;;;;;5025941;28;20667;-58
2021/07/13 09:44:50;;;;;;;4.13;3.83;;;;;;;;;;5026600;28;20179;-58
2021/07/13 09:47:30;;;;;;;4.72;4.15;;;;;;;;;;5027520;28;20230;-58
2021/07/13 09:49:58;;;;;;;4.60;4.20;;;;;;;;;;5024904;28;20249;-57
2021/07/13 09:52:24;;;;;;;4.18;3.88;;;;;;;;;;5029427;28;20171;-59
2021/07/13 09:54:50;;;;;;;4.60;4.20;;;;;;;;;;5022609;28;20299;-57
2021/07/13 09:57:16;;;;;;;4.97;4.68;;;;;;;;;;5025887;28;20230;-58
2021/07/13 09:59:48;;;;;;;7.72;4.68;;;;;;;;;;5023772;28;20197;-57
2021/07/13 10:02:17;;;;;;;4.63;4.32;;;;;;;;;;5023932;28;20209;-57
2021/07/13 10:04:42;;;;;;;5.32;4.55;;;;;;;;;;5025555;28;20281;-58
2021/07/13 10:07:11;;;;;;;4.88;4.35;;;;;;;;;;5025629;28;20293;-59
2021/07/13 10:09:37;;;;;;;4.93;4.60;;;;;;;;;;5024032;28;20194;-58
2021/07/13 10:12:07;;;;;;;8.15;4.70;;;;;;;;;;5025004;28;20182;-58
2021/07/13 10:14:32;;;;;;;5.47;4.95;;;;;;;;;;5025519;28;20770;-57
2021/07/13 10:16:58;;;;;;;5.05;4.65;;;;;;;;;;5026642;28;20206;-56
2021/07/13 10:19:23;;;;;;;5.32;4.90;;;;;;;;;;5027240;28;20217;-57
2021/07/13 10:21:49;;;;;;;6.15;5.03;;;;;;;;;;5025429;28;20711;-58
2021/07/13 10:24:15;;;;;;;5.05;4.65;;;;;;;;;;5022525;28;20191;-56
2021/07/13 10:26:43;;;;;;;5.32;4.72;;;;;;;;;;5022551;28;20353;-58
2021/07/13 10:29:27;;;;;;;4.53;4.20;;;;;;;;;;5026754;28;20252;-56
2021/07/13 10:31:53;;;;;;;4.75;4.32;;;;;;;;;;5026746;28;20245;-57
2021/07/13 10:34:37;;;;;;;4.70;4.30;;;;;;;;;;5013940;28;20557;-58
2021/07/13 10:37:22;;;;;;;4.55;4.15;;;;;;;;;;5028031;28;20440;-59
2021/07/13 10:39:47;;;;;;;4.65;4.35;;;;;;;;;;5023614;28;20762;-57
2021/07/13 10:42:32;;;;;;;4.70;4.40;;;;;;;;;;5025467;28;20194;-58
2021/07/13 10:45:10;;;;;;;4.95;4.47;;;;;;;;;;5022916;28;20937;-59
2021/07/13 10:47:35;;;;;;;4.25;3.85;;;;;;;;;;5025886;28;20195;-56
2021/07/13 10:50:15;;;;;;;4.05;3.72;;;;;;;;;;5023358;28;20599;-58
2021/07/13 10:52:48;;;;;;;4.88;3.83;;;;;;;;;;5025680;28;20713;-58
2021/07/13 10:55:33;;;;;;;4.60;4.15;;;;;;;;;;5020530;28;20222;-58
2021/07/13 10:58:10;;;;;;;4.72;4.32;;;;;;;;;;5025952;28;20198;-57
2021/07/13 11:00:47;;;;;;;5.43;4.63;;;;;;;;;;5021320;28;20178;-57
2021/07/13 11:06:16;;;;;;;5.10;4.60;;;;;;;;;;5026770;28;20750;-56
2021/07/13 11:08:41;;;;;;;4.75;4.28;;;;;;;;;;5007450;28;20203;-57
2021/07/13 11:11:07;;;;;;;4.28;3.97;;;;;;;;;;5017809;28;20186;-58
2021/07/13 11:13:33;;;;;;;4.38;4.07;;;;;;;;;;5018040;28;20190;-56
2021/07/13 11:15:58;;;;;;;4.50;4.05;;;;;;;;;;5017381;28;20183;-56
2021/07/13 11:18:30;;;;;;;4.47;4.18;;;;;;;;;;5023496;28;20186;-58
2021/07/13 11:20:55;;;;;;;4.13;3.83;;;;;;;;;;5017873;28;20220;-57
2021/07/13 11:23:27;;;;;;;4.73;3.87;;;;;;;;;;5021545;28;20312;-59
2021/07/13 11:26:02;;;;;;;4.10;3.80;;;;;;;;;;5008673;28;20461;-58
2021/07/13 11:28:28;;;;;;;4.68;4.38;;;;;;;;;;5008730;28;20175;-58
2021/07/13 11:30:54;;;;;;;5.03;4.40;;;;;;;;;;5024199;28;20194;-58
2021/07/13 11:33:24;;;;;;;4.40;4.10;;;;;;;;;;5024997;28;20431;-55
2021/07/13 11:35:55;;;;;;;4.53;4.22;;;;;;;;;;4997089;28;20175;-55
2021/07/13 11:38:31;;;;;;;4.10;3.90;;;;;;;;;;4997326;28;20191;-60
2021/07/13 11:41:15;;;;;;;4.88;4.47;;;;;;;;;;5018491;28;20193;-57
2021/07/13 11:43:41;;;;;;;4.72;4.43;;;;;;;;;;5002314;28;20248;-59
2021/07/13 11:46:13;;;;;;;4.63;4.22;;;;;;;;;;5018310;28;20207;-59
2021/07/13 11:48:39;;;;;;;5.20;4.80;;;;;;;;;;5000681;28;20198;-58
2021/07/13 11:51:04;;;;;;;5.15;4.68;;;;;;;;;;5020676;28;20553;-58
2021/07/13 11:53:29;;;;;;;4.30;4.00;;;;;;;;;;5019799;28;20763;-55
2021/07/13 11:55:59;;;;;;;5.05;4.65;;;;;;;;;;5016193;28;20294;-57
2021/07/13 11:58:25;;;;;;;4.78;4.38;;;;;;;;;;5002350;28;20194;-57
2021/07/13 12:00:50;;;;;;;4.85;4.47;;;;;;;;;;5016553;28;20195;-57
2021/07/13 12:03:25;;;;;;;6.68;5.13;;;;;;;;;;5021774;28;20194;-55
2021/07/13 12:06:07;;;;;;;5.32;4.82;;;;;;;;;;5016258;28;20985;-57
2021/07/13 12:08:32;;;;;;;4.90;4.35;;;;;;;;;;5010147;28;20194;-58
2021/07/13 12:10:58;;;;;;;4.72;4.30;;;;;;;;;;5007843;28;20199;-57
2021/07/13 12:13:23;;;;;;;5.07;4.57;;;;;;;;;;5021533;28;20550;-59
2021/07/13 12:15:48;;;;;;;5.27;4.73;;;;;;;;;;5022024;28;20475;-58
2021/07/13 12:18:13;;;;;;;6.10;4.80;;;;;;;;;;5019524;28;20445;-56
2021/07/13 12:20:40;;;;;;;5.68;5.18;;;;;;;;;;5025797;28;21851;-58
2021/07/13 12:23:06;;;;;;;5.28;4.60;;;;;;;;;;5025000;28;20198;-58
2021/07/13 12:25:31;;;;;;;5.72;5.22;;;;;;;;;;5026146;28;20606;-57
2021/07/13 12:28:09;;;;;;;5.97;5.00;;;;;;;;;;5024846;28;20595;-59
2021/07/13 12:30:34;;;;;;;5.75;4.82;;;;;;;;;;5024374;28;20190;-58
2021/07/13 12:33:03;;;;;;;5.37;4.87;;;;;;;;;;5026925;28;20197;-59
2021/07/13 12:35:28;;;;;;;5.18;4.78;;;;;;;;;;5024422;28;20430;-60
2021/07/13 12:37:53;;;;;;;7.13;5.32;;;;;;;;;;5020683;28;20206;-59
2021/07/13 12:40:19;;;;;;;5.43;4.97;;;;;;;;;;5023758;28;20643;-58
2021/07/13 12:42:47;;;;;;;6.73;5.03;;;;;;;;;;5023745;28;20534;-60
2021/07/13 12:45:22;;;;;;;10.45;5.78;;;;;;;;;;5025362;28;20468;-58
2021/07/13 12:47:48;;;;;;;5.53;5.13;;;;;;;;;;5023048;28;20208;-59
2021/07/13 12:50:20;;;;;;;6.68;5.07;;;;;;;;;;5004700;28;20190;-59
2021/07/13 12:52:47;;;;;;;6.30;5.30;;;;;;;;;;5025228;28;20175;-58
2021/07/13 12:55:14;;;;;;;8.15;4.80;;;;;;;;;;5020041;28;20229;-56
2021/07/13 12:57:47;;;;;;;4.82;4.43;;;;;;;;;;5019689;28;20199;-58
2021/07/13 13:00:38;;;;;;;4.95;4.55;;;;;;;;;;5020366;28;20189;-58
2021/07/13 13:03:08;;;;;;;5.15;4.75;;;;;;;;;;5007529;28;20214;-58
2021/07/13 13:05:34;;;;;;;4.65;4.30;;;;;;;;;;5023525;28;20209;-60
2021/07/13 13:08:00;;;;;;;4.63;4.22;;;;;;;;;;5022327;28;20209;-59
2021/07/13 13:10:28;;;;;;;5.05;4.65;;;;;;;;;;5022730;28;20571;-58
2021/07/13 13:12:53;;;;;;;5.20;4.80;;;;;;;;;;5009409;28;20175;-58
2021/07/13 13:15:22;;;;;;;5.47;4.97;;;;;;;;;;5024127;28;20189;-60
2021/07/13 13:17:47;;;;;;;6.28;4.90;;;;;;;;;;5006913;28;20210;-59
2021/07/13 13:20:13;;;;;;;5.40;4.90;;;;;;;;;;5020058;28;20212;-57
2021/07/13 13:22:44;;;;;;;6.27;4.77;;;;;;;;;;5014260;28;20209;-59
2021/07/13 13:25:09;;;;;;;4.80;4.40;;;;;;;;;;5013354;28;20501;-59
2021/07/13 13:27:34;;;;;;;5.03;4.63;;;;;;;;;;5015938;28;20206;-58
2021/07/13 13:30:00;;;;;;;5.30;3.90;;;;;;;;;;5014228;28;20187;-58
2021/07/13 13:32:25;;;;;;;6.20;4.30;;;;;;;;;;5018265;28;20441;-59
2021/07/13 13:34:50;;;;;;;4.65;4.15;;;;;;;;;;5003843;28;20953;-58
2021/07/13 13:37:22;;;;;;;4.70;4.30;;;;;;;;;;5014762;28;20699;-58
2021/07/13 13:39:47;;;;;;;4.82;4.43;;;;;;;;;;5013697;28;20430;-60
2021/07/13 13:42:12;;;;;;;5.07;4.68;;;;;;;;;;5023455;28;20167;-61
2021/07/13 13:44:37;;;;;;;4.77;4.37;;;;;;;;;;5027002;28;20183;-57
2021/07/13 13:47:03;;;;;;;4.83;4.33;;;;;;;;;;5026850;28;20981;-57
2021/07/13 13:49:28;;;;;;;6.35;4.40;;;;;;;;;;5017369;28;20509;-60
2021/07/13 13:51:53;;;;;;;7.88;4.57;;;;;;;;;;5020320;28;20648;-58
2021/07/13 13:54:18;;;;;;;4.93;4.43;;;;;;;;;;4996489;28;20758;-59
2021/07/13 13:56:43;;;;;;;5.00;4.30;;;;;;;;;;5016760;28;20583;-59
2021/07/13 13:59:09;;;;;;;4.90;4.40;;;;;;;;;;5021533;28;20433;-59
2021/07/13 14:01:34;;;;;;;5.13;4.72;;;;;;;;;;5024851;28;20459;-59
2021/07/13 14:03:59;;;;;;;7.60;4.47;;;;;;;;;;5025211;28;20186;-57
2021/07/13 14:06:24;;;;;;;5.20;4.70;;;;;;;;;;5021746;28;20466;-61
2021/07/13 14:08:49;;;;;;;5.37;4.90;;;;;;;;;;5023944;28;20425;-59
2021/07/13 14:11:15;;;;;;;5.10;4.60;;;;;;;;;;5023446;28;20441;-60
2021/07/13 14:13:41;;;;;;;5.30;4.82;;;;;;;;;;5023111;28;20183;-60
2021/07/13 14:16:07;;;;;;;5.88;5.28;;;;;;;;;;5026082;28;20186;-59
2021/07/13 14:18:33;;;;;;;5.85;4.88;;;;;;;;;;5029697;28;20174;-58
2021/07/13 14:20:59;;;;;;;5.25;4.68;;;;;;;;;;5025788;28;20187;-59
2021/07/13 14:23:24;;;;;;;7.10;4.70;;;;;;;;;;5024690;28;20702;-57
2021/07/13 14:25:50;;;;;;;5.10;4.60;;;;;;;;;;5024179;28;20230;-60
2021/07/13 14:28:15;;;;;;;6.85;4.68;;;;;;;;;;5029788;28;20210;-60
2021/07/13 14:30:40;;;;;;;5.47;4.72;;;;;;;;;;5014921;28;20187;-59
2021/07/13 14:33:05;;;;;;;4.78;4.43;;;;;;;;;;5003008;28;20203;-58
2021/07/13 14:35:31;;;;;;;4.93;4.30;;;;;;;;;;5015972;28;20553;-58
2021/07/13 14:37:56;;;;;;;4.82;4.43;;;;;;;;;;5016104;28;20450;-57
2021/07/13 14:40:21;;;;;;;4.85;4.43;;;;;;;;;;5017106;28;20217;-59
2021/07/13 14:42:46;;;;;;;7.20;4.70;;;;;;;;;;4998377;28;20191;-59